createdAt,value
2018-07-24T00:00:01.393Z,49.61
2018-07-24T00:01:01.399Z,49.61
2018-07-24T00:02:01.404Z,49.99
2018-07-24T00:03:01.413Z,49.70
2018-07-24T00:04:01.424Z,49.80
2018-07-24T00:05:01.435Z,50.19
2018-07-24T00:06:01.441Z,49.99
2018-07-24T00:07:01.455Z,50.19
2018-07-24T00:08:01.457Z,50.09
2018-07-24T00:09:01.467Z,50.19
2018-07-24T00:10:01.470Z,50.29
2018-07-24T00:11:01.534Z,50.19
2018-07-24T00:12:01.492Z,49.80
2018-07-24T00:13:01.502Z,50.29
2018-07-24T00:14:01.502Z,49.80
2018-07-24T00:15:01.512Z,49.90
2018-07-24T00:16:01.524Z,50.09
2018-07-24T00:17:01.526Z,49.90
2018-07-24T00:18:01.538Z,49.51
2018-07-24T00:19:01.544Z,49.99
2018-07-24T00:20:01.559Z,49.99
2018-07-24T00:21:01.560Z,50.19
2018-07-24T00:22:01.571Z,50.19
2018-07-24T00:23:01.574Z,50.09
2018-07-24T00:24:01.585Z,49.61
2018-07-24T00:25:01.594Z,50.09
2018-07-24T00:26:01.601Z,50.09
2018-07-24T00:27:01.607Z,50.19
2018-07-24T00:28:01.615Z,50.09
2018-07-24T00:29:01.628Z,49.80
2018-07-24T00:30:01.632Z,50.19
2018-07-24T00:31:01.640Z,50.09
2018-07-24T00:32:01.668Z,49.99
2018-07-24T00:33:01.660Z,50.09
2018-07-24T00:34:01.663Z,50.38
2018-07-24T00:35:01.674Z,50.19
2018-07-24T00:36:01.683Z,50.09
2018-07-24T00:37:01.689Z,49.61
2018-07-24T00:38:01.695Z,49.51
2018-07-24T00:39:01.704Z,49.61
2018-07-24T00:40:01.717Z,50.09
2018-07-24T00:41:01.733Z,50.09
2018-07-24T00:42:01.734Z,49.51
2018-07-24T00:43:01.740Z,49.70
2018-07-24T00:44:01.748Z,49.90
2018-07-24T00:45:01.755Z,50.19
2018-07-24T00:46:01.764Z,49.90
2018-07-24T00:47:01.770Z,49.80
2018-07-24T00:48:01.781Z,49.70
2018-07-24T00:49:01.788Z,49.80
2018-07-24T00:50:01.794Z,49.70
2018-07-24T00:51:01.803Z,49.80
2018-07-24T00:52:01.813Z,49.41
2018-07-24T00:53:01.822Z,49.22
2018-07-24T00:54:01.843Z,49.22
2018-07-24T00:55:01.838Z,49.22
2018-07-24T00:56:01.840Z,49.63
2018-07-24T00:57:01.847Z,49.41
2018-07-24T00:58:01.862Z,49.32
2018-07-24T00:59:01.868Z,49.90
2018-07-24T01:00:01.879Z,49.41
2018-07-24T01:01:01.889Z,49.99
2018-07-24T01:02:01.894Z,50.09
2018-07-24T01:03:01.898Z,50.09
2018-07-24T01:04:01.911Z,49.99
2018-07-24T01:05:01.918Z,49.90
2018-07-24T01:06:01.924Z,49.80
2018-07-24T01:07:01.931Z,49.41
2018-07-24T01:08:01.941Z,49.51
2018-07-24T01:09:01.956Z,49.41
2018-07-24T01:10:01.962Z,49.32
2018-07-24T01:11:01.966Z,49.32
2018-07-24T01:12:01.976Z,49.41
2018-07-24T01:13:01.984Z,49.12
2018-07-24T01:14:02.000Z,49.32
2018-07-24T01:15:01.999Z,49.80
2018-07-24T01:16:02.006Z,49.61
2018-07-24T01:17:02.017Z,50.19
2018-07-24T01:18:02.025Z,49.80
2018-07-24T01:19:02.032Z,50.16
2018-07-24T01:20:02.047Z,49.97
2018-07-24T01:21:02.045Z,50.16
2018-07-24T01:22:02.056Z,50.16
2018-07-24T01:23:02.063Z,50.45
2018-07-24T01:24:02.070Z,50.45
2018-07-24T01:25:02.077Z,51.01
2018-07-24T01:26:02.088Z,51.20
2018-07-24T01:27:02.096Z,51.20
2018-07-24T01:28:02.105Z,51.20
2018-07-24T01:29:02.111Z,51.20
2018-07-24T01:30:02.118Z,50.52
2018-07-24T01:31:02.127Z,51.20
2018-07-24T01:32:02.142Z,50.82
2018-07-24T01:33:02.144Z,50.65
2018-07-24T01:34:02.154Z,50.14
2018-07-24T01:35:02.163Z,50.24
2018-07-24T01:36:02.171Z,50.26
2018-07-24T01:37:02.179Z,50.55
2018-07-24T01:38:02.188Z,50.55
2018-07-24T01:39:02.190Z,50.07
2018-07-24T01:40:02.201Z,49.97
2018-07-24T01:41:02.206Z,50.26
2018-07-24T01:42:02.219Z,50.62
2018-07-24T01:43:02.224Z,50.94
2018-07-24T01:44:02.233Z,50.65
2018-07-24T01:45:02.239Z,50.55
2018-07-24T01:46:02.250Z,50.45
2018-07-24T01:47:02.259Z,50.35
2018-07-24T01:48:02.260Z,50.94
2018-07-24T01:49:02.268Z,50.94
2018-07-24T01:50:02.275Z,50.65
2018-07-24T01:51:02.285Z,50.94
2018-07-24T01:52:02.300Z,50.55
2018-07-24T01:53:02.299Z,50.55
2018-07-24T01:54:02.314Z,50.26
2018-07-24T01:55:02.323Z,50.16
2018-07-24T01:56:02.327Z,50.45
2018-07-24T01:57:02.334Z,50.55
2018-07-24T01:58:02.348Z,50.45
2018-07-24T01:59:02.346Z,50.14
2018-07-24T02:00:02.356Z,50.26
2018-07-24T02:01:02.367Z,50.26
2018-07-24T02:02:02.372Z,49.97
2018-07-24T02:03:02.392Z,50.26
2018-07-24T02:04:02.389Z,50.35
2018-07-24T02:05:02.403Z,50.24
2018-07-24T02:06:02.400Z,50.16
2018-07-24T02:07:02.413Z,50.35
2018-07-24T02:08:02.419Z,50.16
2018-07-24T02:09:02.426Z,50.26
2018-07-24T02:10:02.432Z,50.35
2018-07-24T02:11:02.446Z,50.35
2018-07-24T02:12:02.453Z,50.74
2018-07-24T02:13:02.460Z,51.04
2018-07-24T02:14:02.469Z,51.04
2018-07-24T02:15:02.474Z,50.94
2018-07-24T02:16:02.483Z,51.23
2018-07-24T02:17:02.488Z,50.94
2018-07-24T02:18:02.502Z,51.23
2018-07-24T02:19:02.510Z,50.94
2018-07-24T02:20:02.511Z,50.26
2018-07-24T02:21:02.522Z,50.94
2018-07-24T02:22:02.529Z,50.65
2018-07-24T02:23:02.533Z,50.45
2018-07-24T02:24:02.544Z,50.26
2018-07-24T02:25:02.553Z,50.74
2018-07-24T02:26:02.560Z,50.65
2018-07-24T02:27:02.564Z,50.55
2018-07-24T02:28:02.576Z,50.26
2018-07-24T02:29:02.585Z,50.35
2018-07-24T02:30:02.599Z,50.45
2018-07-24T02:31:02.601Z,50.55
2018-07-24T02:32:02.611Z,50.55
2018-07-24T02:33:02.615Z,50.55
2018-07-24T02:34:02.620Z,50.45
2018-07-24T02:35:02.628Z,50.26
2018-07-24T02:36:02.641Z,50.07
2018-07-24T02:37:02.647Z,50.45
2018-07-24T02:38:02.659Z,50.45
2018-07-24T02:39:02.665Z,50.26
2018-07-24T02:40:02.671Z,50.94
2018-07-24T02:41:02.675Z,51.04
2018-07-24T02:42:02.689Z,51.04
2018-07-24T02:43:02.695Z,51.13
2018-07-24T02:44:02.705Z,50.74
2018-07-24T02:45:02.708Z,50.84
2018-07-24T02:46:02.718Z,50.92
2018-07-24T02:47:02.724Z,51.10
2018-07-24T02:48:02.735Z,50.52
2018-07-24T02:49:02.743Z,50.84
2018-07-24T02:50:02.753Z,51.10
2018-07-24T02:51:02.768Z,51.01
2018-07-24T02:52:02.765Z,50.92
2018-07-24T02:53:02.775Z,51.10
2018-07-24T02:54:02.779Z,51.01
2018-07-24T02:55:02.791Z,51.20
2018-07-24T02:56:02.797Z,51.50
2018-07-24T02:57:02.805Z,51.50
2018-07-24T02:58:02.819Z,51.30
2018-07-24T02:59:02.821Z,51.40
2018-07-24T03:00:02.828Z,51.10
2018-07-24T03:01:02.835Z,51.40
2018-07-24T03:02:02.843Z,51.40
2018-07-24T03:03:02.847Z,51.40
2018-07-24T03:04:02.866Z,51.30
2018-07-24T03:05:02.866Z,51.40
2018-07-24T03:06:02.872Z,51.08
2018-07-24T03:07:02.921Z,51.50
2018-07-24T03:08:02.890Z,51.28
2018-07-24T03:09:02.893Z,51.28
2018-07-24T03:10:02.904Z,51.40
2018-07-24T03:11:02.916Z,51.50
2018-07-24T03:12:02.921Z,51.28
2018-07-24T03:13:02.930Z,51.37
2018-07-24T03:14:02.935Z,51.47
2018-07-24T03:15:02.946Z,51.28
2018-07-24T03:16:02.958Z,51.28
2018-07-24T03:17:02.958Z,51.28
2018-07-24T03:18:02.962Z,51.37
2018-07-24T03:19:02.981Z,51.18
2018-07-24T03:20:02.988Z,51.18
2018-07-24T03:21:02.997Z,50.79
2018-07-24T03:22:02.992Z,51.37
2018-07-24T03:23:03.000Z,51.66
2018-07-24T03:24:03.010Z,51.37
2018-07-24T03:25:03.022Z,51.37
2018-07-24T03:26:03.029Z,51.28
2018-07-24T03:27:03.034Z,51.28
2018-07-24T03:28:03.044Z,51.01
2018-07-24T03:29:03.048Z,51.40
2018-07-24T03:30:03.061Z,51.30
2018-07-24T03:31:03.065Z,51.10
2018-07-24T03:32:03.069Z,51.40
2018-07-24T03:33:03.082Z,51.30
2018-07-24T03:34:03.087Z,51.20
2018-07-24T03:35:03.095Z,51.01
2018-07-24T03:36:03.098Z,51.40
2018-07-24T03:37:03.116Z,51.01
2018-07-24T03:38:03.116Z,50.33
2018-07-24T03:39:03.127Z,50.24
2018-07-24T03:40:03.130Z,50.72
2018-07-24T03:41:03.141Z,50.92
2018-07-24T03:42:03.149Z,50.62
2018-07-24T03:43:03.157Z,50.62
2018-07-24T03:44:03.167Z,50.43
2018-07-24T03:45:03.227Z,50.43
2018-07-24T03:46:03.180Z,50.43
2018-07-24T03:47:03.189Z,50.24
2018-07-24T03:48:03.192Z,49.85
2018-07-24T03:49:03.202Z,49.75
2018-07-24T03:50:03.203Z,50.04
2018-07-24T03:51:03.215Z,50.04
2018-07-24T03:52:03.223Z,50.72
2018-07-24T03:53:03.232Z,50.62
2018-07-24T03:54:03.236Z,50.33
2018-07-24T03:55:03.244Z,50.04
2018-07-24T03:56:03.253Z,50.04
2018-07-24T03:57:03.259Z,50.04
2018-07-24T03:58:03.264Z,49.95
2018-07-24T03:59:03.272Z,50.04
2018-07-24T04:00:03.283Z,50.14
2018-07-24T04:01:03.286Z,50.04
2018-07-24T04:02:03.300Z,50.62
2018-07-24T04:03:03.314Z,50.43
2018-07-24T04:04:03.316Z,50.62
2018-07-24T04:05:03.321Z,50.43
2018-07-24T04:06:03.328Z,50.33
2018-07-24T04:07:03.340Z,50.43
2018-07-24T04:08:03.349Z,49.95
2018-07-24T04:09:03.351Z,50.16
2018-07-24T04:10:03.359Z,49.95
2018-07-24T04:11:03.367Z,49.97
2018-07-24T04:12:03.378Z,50.07
2018-07-24T04:13:03.382Z,49.19
2018-07-24T04:14:03.390Z,48.90
2018-07-24T04:15:03.400Z,49.00
2018-07-24T04:16:03.411Z,49.00
2018-07-24T04:17:03.415Z,49.10
2018-07-24T04:18:03.427Z,49.19
2018-07-24T04:19:03.430Z,49.10
2018-07-24T04:20:03.440Z,49.39
2018-07-24T04:21:03.447Z,49.19
2018-07-24T04:22:03.458Z,49.29
2018-07-24T04:23:03.457Z,49.19
2018-07-24T04:24:03.467Z,49.29
2018-07-24T04:25:03.478Z,49.19
2018-07-24T04:26:03.485Z,49.29
2018-07-24T04:27:03.492Z,49.29
2018-07-24T04:28:03.509Z,49.10
2018-07-24T04:29:03.508Z,49.10
2018-07-24T04:30:03.515Z,49.29
2018-07-24T04:31:03.548Z,49.27
2018-07-24T04:32:03.528Z,48.97
2018-07-24T04:33:03.544Z,48.97
2018-07-24T04:34:03.548Z,49.17
2018-07-24T04:35:03.553Z,49.10
2018-07-24T04:36:03.560Z,49.10
2018-07-24T04:37:03.571Z,49.29
2018-07-24T04:38:03.572Z,48.81
2018-07-24T04:39:03.583Z,48.81
2018-07-24T04:40:03.657Z,48.61
2018-07-24T04:41:03.595Z,48.81
2018-07-24T04:42:03.610Z,48.81
2018-07-24T04:43:03.616Z,48.52
2018-07-24T04:44:03.622Z,48.32
2018-07-24T04:45:03.626Z,48.61
2018-07-24T04:46:03.640Z,48.32
2018-07-24T04:47:03.647Z,48.13
2018-07-24T04:48:03.663Z,47.84
2018-07-24T04:49:03.659Z,47.86
2018-07-24T04:50:03.666Z,48.15
2018-07-24T04:51:03.680Z,47.86
2018-07-24T04:52:03.686Z,47.96
2018-07-24T04:53:03.693Z,48.25
2018-07-24T04:54:03.700Z,47.96
2018-07-24T04:55:03.712Z,47.96
2018-07-24T04:56:03.714Z,47.77
2018-07-24T04:57:03.724Z,47.96
2018-07-24T04:58:03.728Z,47.86
2018-07-24T04:59:03.739Z,47.38
2018-07-24T05:00:03.748Z,47.47
2018-07-24T05:01:03.752Z,47.38
2018-07-24T05:02:03.764Z,47.19
2018-07-24T05:03:03.773Z,47.28
2018-07-24T05:04:03.782Z,47.28
2018-07-24T05:05:03.786Z,46.89
2018-07-24T05:06:03.791Z,46.70
2018-07-24T05:07:03.806Z,47.09
2018-07-24T05:08:03.811Z,47.38
2018-07-24T05:09:03.817Z,46.99
2018-07-24T05:10:03.827Z,46.89
2018-07-24T05:11:03.836Z,47.20
2018-07-24T05:12:03.844Z,47.02
2018-07-24T05:13:03.854Z,46.92
2018-07-24T05:14:03.868Z,47.19
2018-07-24T05:15:03.871Z,46.92
2018-07-24T05:16:03.875Z,47.02
2018-07-24T05:17:03.932Z,46.53
2018-07-24T05:18:03.889Z,46.62
2018-07-24T05:19:03.905Z,46.53
2018-07-24T05:20:03.912Z,46.24
2018-07-24T05:21:03.916Z,45.97
2018-07-24T05:22:03.928Z,45.97
2018-07-24T05:23:03.934Z,45.97
2018-07-24T05:24:03.945Z,45.68
2018-07-24T05:25:03.947Z,45.58
2018-07-24T05:26:03.956Z,45.39
2018-07-24T05:27:03.965Z,45.10
2018-07-24T05:28:03.977Z,45.20
2018-07-24T05:29:03.986Z,45.21
2018-07-24T05:30:03.989Z,44.83
2018-07-24T05:31:04.001Z,44.92
2018-07-24T05:32:04.012Z,44.83
2018-07-24T05:33:04.037Z,45.12
2018-07-24T05:34:04.027Z,44.54
2018-07-24T05:35:04.031Z,44.27
2018-07-24T05:36:04.040Z,44.37
2018-07-24T05:37:04.061Z,43.88
2018-07-24T05:38:04.062Z,43.78
2018-07-24T05:39:04.067Z,43.68
2018-07-24T05:40:04.076Z,43.78
2018-07-24T05:41:04.082Z,43.59
2018-07-24T05:42:04.096Z,43.59
2018-07-24T05:43:04.104Z,43.68
2018-07-24T05:44:04.109Z,43.88
2018-07-24T05:45:04.120Z,43.78
2018-07-24T05:46:04.126Z,43.78
2018-07-24T05:47:04.138Z,42.93
2018-07-24T05:48:04.145Z,43.22
2018-07-24T05:49:04.229Z,43.32
2018-07-24T05:50:04.159Z,43.51
2018-07-24T05:51:04.171Z,42.74
2018-07-24T05:52:04.178Z,42.93
2018-07-24T05:53:04.183Z,43.02
2018-07-24T05:54:04.198Z,43.12
2018-07-24T05:55:04.220Z,43.24
2018-07-24T05:56:04.214Z,42.66
2018-07-24T05:57:04.218Z,43.05
2018-07-24T05:58:04.226Z,43.15
2018-07-24T05:59:04.240Z,42.56
2018-07-24T06:00:04.251Z,42.76
2018-07-24T06:01:04.262Z,42.46
2018-07-24T06:02:04.266Z,42.46
2018-07-24T06:03:04.279Z,42.18
2018-07-24T06:04:04.283Z,42.08
2018-07-24T06:05:04.295Z,41.98
2018-07-24T06:06:04.298Z,41.98
2018-07-24T06:07:04.309Z,42.08
2018-07-24T06:08:04.321Z,41.69
2018-07-24T06:09:04.331Z,42.19
2018-07-24T06:10:04.334Z,42.00
2018-07-24T06:11:04.348Z,42.00
2018-07-24T06:12:04.356Z,41.71
2018-07-24T06:13:04.404Z,41.90
2018-07-24T06:14:04.370Z,41.61
2018-07-24T06:15:04.383Z,41.42
2018-07-24T06:16:04.392Z,41.51
2018-07-24T06:17:04.494Z,41.51
2018-07-24T06:18:04.408Z,41.22
2018-07-24T06:19:04.423Z,41.22
2018-07-24T06:20:04.429Z,41.13
2018-07-24T06:21:04.440Z,41.51
2018-07-24T06:22:04.445Z,41.24
2018-07-24T06:23:04.500Z,41.24
2018-07-24T06:24:04.464Z,41.34
2018-07-24T06:25:04.477Z,41.14
2018-07-24T06:26:04.482Z,41.14
2018-07-24T06:27:04.489Z,40.95
2018-07-24T06:28:04.502Z,40.85
2018-07-24T06:29:04.508Z,40.95
2018-07-24T06:30:04.519Z,40.66
2018-07-24T06:31:04.527Z,40.56
2018-07-24T06:32:04.535Z,40.37
2018-07-24T06:33:04.546Z,40.66
2018-07-24T06:34:04.559Z,40.85
2018-07-24T06:35:04.611Z,40.47
2018-07-24T06:36:04.576Z,40.56
2018-07-24T06:37:04.584Z,40.37
2018-07-24T06:38:04.593Z,40.48
2018-07-24T06:39:04.604Z,40.39
2018-07-24T06:40:04.617Z,40.48
2018-07-24T06:41:04.620Z,40.39
2018-07-24T06:42:04.631Z,40.29
2018-07-24T06:43:04.641Z,40.19
2018-07-24T06:44:04.648Z,40.09
2018-07-24T06:45:04.659Z,40.19
2018-07-24T06:46:04.671Z,40.00
2018-07-24T06:47:04.676Z,40.00
2018-07-24T06:48:04.689Z,40.19
2018-07-24T06:49:04.698Z,40.00
2018-07-24T06:50:04.711Z,40.09
2018-07-24T06:51:04.718Z,40.09
2018-07-24T06:52:04.829Z,40.21
2018-07-24T06:53:04.731Z,39.72
2018-07-24T06:54:04.743Z,39.72
2018-07-24T06:55:04.752Z,39.62
2018-07-24T06:56:04.764Z,39.72
2018-07-24T06:57:04.783Z,39.53
2018-07-24T06:58:04.785Z,39.62
2018-07-24T06:59:04.798Z,39.14
2018-07-24T07:00:04.802Z,39.82
2018-07-24T07:01:04.810Z,39.14
2018-07-24T07:02:04.825Z,39.14
2018-07-24T07:03:04.833Z,39.43
2018-07-24T07:04:04.848Z,39.43
2018-07-24T07:05:04.867Z,39.24
2018-07-24T07:06:04.863Z,39.53
2018-07-24T07:07:04.875Z,38.87
2018-07-24T07:08:04.885Z,39.06
2018-07-24T07:09:04.889Z,38.87
2018-07-24T07:10:04.901Z,38.67
2018-07-24T07:11:04.914Z,38.67
2018-07-24T07:12:04.920Z,38.77
2018-07-24T07:13:04.939Z,38.96
2018-07-24T07:14:04.938Z,38.87
2018-07-24T07:15:04.953Z,38.57
2018-07-24T07:16:04.972Z,38.57
2018-07-24T07:17:04.966Z,38.67
2018-07-24T07:18:04.976Z,38.67
2018-07-24T07:19:04.990Z,38.38
2018-07-24T07:20:05.001Z,38.57
2018-07-24T07:21:05.021Z,38.57
2018-07-24T07:22:05.019Z,38.48
2018-07-24T07:23:05.030Z,38.57
2018-07-24T07:24:05.047Z,38.48
2018-07-24T07:25:05.057Z,38.48
2018-07-24T07:26:05.100Z,38.49
2018-07-24T07:27:05.072Z,38.89
2018-07-24T07:28:05.078Z,38.69
2018-07-24T07:29:05.126Z,38.79
2018-07-24T07:30:05.100Z,38.79
2018-07-24T07:31:05.108Z,38.79
2018-07-24T07:32:05.123Z,38.49
2018-07-24T07:33:05.127Z,38.49
2018-07-24T07:34:05.138Z,38.30
2018-07-24T07:35:05.151Z,38.01
2018-07-24T07:36:05.164Z,38.01
2018-07-24T07:37:05.170Z,38.10
2018-07-24T07:38:05.191Z,37.91
2018-07-24T07:39:05.239Z,38.01
2018-07-24T07:40:05.202Z,38.01
2018-07-24T07:41:05.212Z,37.91
2018-07-24T07:42:05.224Z,37.71
2018-07-24T07:43:05.229Z,37.91
2018-07-24T07:44:05.247Z,37.81
2018-07-24T07:45:05.250Z,37.91
2018-07-24T07:46:05.263Z,38.01
2018-07-24T07:47:05.274Z,37.71
2018-07-24T07:48:05.288Z,37.62
2018-07-24T07:49:05.295Z,37.73
2018-07-24T07:50:05.310Z,37.81
2018-07-24T07:51:05.316Z,37.83
2018-07-24T07:52:05.325Z,37.54
2018-07-24T07:53:05.340Z,37.45
2018-07-24T07:54:05.349Z,37.63
2018-07-24T07:55:05.363Z,37.54
2018-07-24T07:56:05.368Z,37.83
2018-07-24T07:57:05.375Z,37.45
2018-07-24T07:58:05.390Z,37.45
2018-07-24T07:59:05.400Z,37.45
2018-07-24T08:00:05.414Z,37.45
2018-07-24T08:01:05.419Z,37.35
2018-07-24T08:02:05.446Z,37.54
2018-07-24T08:03:05.441Z,37.25
2018-07-24T08:04:05.448Z,37.05
2018-07-24T08:05:05.461Z,37.63
2018-07-24T08:06:05.475Z,37.35
2018-07-24T08:07:05.485Z,37.05
2018-07-24T08:08:05.490Z,37.15
2018-07-24T08:09:05.507Z,37.07
2018-07-24T08:10:05.513Z,36.86
2018-07-24T08:11:05.521Z,37.07
2018-07-24T08:12:05.539Z,37.07
2018-07-24T08:13:05.543Z,36.96
2018-07-24T08:14:05.613Z,37.07
2018-07-24T08:15:05.565Z,37.07
2018-07-24T08:16:05.576Z,37.17
2018-07-24T08:17:05.586Z,37.15
2018-07-24T08:18:05.602Z,37.37
2018-07-24T08:19:05.613Z,37.27
2018-07-24T08:20:05.624Z,37.17
2018-07-24T08:21:05.630Z,37.17
2018-07-24T08:22:05.639Z,37.27
2018-07-24T08:23:05.656Z,37.37
2018-07-24T08:24:05.663Z,37.37
2018-07-24T08:25:05.671Z,37.37
2018-07-24T08:26:05.684Z,37.37
2018-07-24T08:27:05.698Z,37.37
2018-07-24T08:28:05.763Z,37.17
2018-07-24T08:29:05.716Z,37.55
2018-07-24T08:30:05.725Z,37.07
2018-07-24T08:31:05.737Z,37.37
2018-07-24T08:32:05.755Z,37.07
2018-07-24T08:33:05.756Z,36.78
2018-07-24T08:34:05.773Z,36.78
2018-07-24T08:35:05.789Z,37.07
2018-07-24T08:36:05.795Z,36.98
2018-07-24T08:37:05.804Z,37.07
2018-07-24T08:38:05.817Z,36.80
2018-07-24T08:39:05.825Z,36.98
2018-07-24T08:40:05.838Z,37.19
2018-07-24T08:41:05.844Z,37.17
2018-07-24T08:42:05.854Z,36.90
2018-07-24T08:43:05.881Z,36.99
2018-07-24T08:44:05.882Z,37.09
2018-07-24T08:45:05.895Z,36.99
2018-07-24T08:46:05.897Z,37.09
2018-07-24T08:47:05.913Z,36.90
2018-07-24T08:48:05.923Z,36.90
2018-07-24T08:49:05.970Z,36.90
2018-07-24T08:50:05.944Z,36.90
2018-07-24T08:51:05.954Z,36.99
2018-07-24T08:52:05.965Z,36.51
2018-07-24T08:53:06.130Z,36.51
2018-07-24T08:54:06.089Z,36.80
2018-07-24T08:55:06.483Z,36.51
2018-07-24T08:56:06.009Z,36.80
2018-07-24T08:57:06.021Z,36.80
2018-07-24T08:58:06.028Z,36.80
2018-07-24T08:59:06.042Z,36.99
2018-07-24T09:00:06.056Z,36.80
2018-07-24T09:01:06.061Z,36.90
2018-07-24T09:02:06.077Z,36.91
2018-07-24T09:03:06.118Z,36.21
2018-07-24T09:04:06.109Z,36.90
2018-07-24T09:05:06.110Z,36.31
2018-07-24T09:06:06.118Z,36.51
2018-07-24T09:07:06.133Z,36.90
2018-07-24T09:08:06.139Z,36.51
2018-07-24T09:09:06.148Z,36.41
2018-07-24T09:10:06.175Z,36.41
2018-07-24T09:11:06.173Z,36.31
2018-07-24T09:12:06.186Z,36.60
2018-07-24T09:13:06.193Z,36.52
2018-07-24T09:14:06.211Z,36.72
2018-07-24T09:15:06.217Z,36.62
2018-07-24T09:16:06.226Z,36.62
2018-07-24T09:17:06.243Z,36.52
2018-07-24T09:18:06.244Z,36.52
2018-07-24T09:19:06.265Z,36.62
2018-07-24T09:20:06.275Z,36.52
2018-07-24T09:21:06.288Z,36.52
2018-07-24T09:22:06.298Z,36.52
2018-07-24T09:23:06.306Z,36.43
2018-07-24T09:24:06.316Z,36.33
2018-07-24T09:25:06.331Z,36.82
2018-07-24T09:26:06.340Z,36.33
2018-07-24T09:27:06.422Z,36.33
2018-07-24T09:28:06.364Z,36.72
2018-07-24T09:29:06.372Z,36.62
2018-07-24T09:30:06.384Z,36.13
2018-07-24T09:31:06.400Z,36.04
2018-07-24T09:32:06.448Z,36.13
2018-07-24T09:33:06.417Z,35.94
2018-07-24T09:34:06.433Z,35.94
2018-07-24T09:35:06.441Z,35.94
2018-07-24T09:36:06.452Z,36.23
2018-07-24T09:37:06.463Z,36.43
2018-07-24T09:38:06.473Z,36.33
2018-07-24T09:39:06.486Z,36.43
2018-07-24T09:40:06.495Z,36.52
2018-07-24T09:41:06.509Z,36.33
2018-07-24T09:42:06.519Z,36.43
2018-07-24T09:43:06.534Z,36.43
2018-07-24T09:44:06.544Z,36.43
2018-07-24T09:45:06.554Z,36.43
2018-07-24T09:46:06.562Z,36.43
2018-07-24T09:47:06.575Z,36.43
2018-07-24T09:48:06.587Z,36.62
2018-07-24T09:49:06.596Z,36.33
2018-07-24T09:50:06.607Z,36.43
2018-07-24T09:51:06.621Z,36.33
2018-07-24T09:52:06.634Z,36.72
2018-07-24T09:53:06.641Z,36.33
2018-07-24T09:54:06.653Z,36.72
2018-07-24T09:55:06.662Z,36.52
2018-07-24T09:56:06.675Z,36.33
2018-07-24T09:57:06.686Z,36.62
2018-07-24T09:58:06.699Z,36.72
2018-07-24T09:59:06.706Z,36.33
2018-07-24T10:00:06.721Z,36.33
2018-07-24T10:01:06.733Z,36.52
2018-07-24T10:02:06.743Z,36.43
2018-07-24T10:03:06.753Z,36.33
2018-07-24T10:04:06.766Z,36.52
2018-07-24T10:05:06.839Z,36.33
2018-07-24T10:06:06.788Z,36.52
2018-07-24T10:07:06.803Z,36.33
2018-07-24T10:08:06.809Z,36.52
2018-07-24T10:09:06.818Z,36.43
2018-07-24T10:10:06.835Z,36.52
2018-07-24T10:11:06.921Z,36.52
2018-07-24T10:12:06.899Z,36.43
2018-07-24T10:13:06.940Z,36.43
2018-07-24T10:14:06.877Z,36.52
2018-07-24T10:15:06.889Z,36.43
2018-07-24T10:16:06.901Z,36.43
2018-07-24T10:17:06.913Z,36.62
2018-07-24T10:18:06.920Z,36.43
2018-07-24T10:19:06.933Z,36.43
2018-07-24T10:20:06.949Z,36.52
2018-07-24T10:21:06.953Z,36.33
2018-07-24T10:22:06.971Z,36.52
2018-07-24T10:23:06.982Z,36.52
2018-07-24T10:24:06.991Z,36.62
2018-07-24T10:25:07.001Z,36.52
2018-07-24T10:26:07.014Z,36.62
2018-07-24T10:27:07.028Z,36.43
2018-07-24T10:28:07.034Z,36.52
2018-07-24T10:29:07.047Z,36.52
2018-07-24T10:30:07.060Z,36.43
2018-07-24T10:31:07.070Z,36.43
2018-07-24T10:32:07.081Z,36.52
2018-07-24T10:33:07.092Z,36.33
2018-07-24T10:34:07.107Z,36.34
2018-07-24T10:35:07.116Z,36.43
2018-07-24T10:36:07.124Z,36.63
2018-07-24T10:37:07.140Z,36.33
2018-07-24T10:38:07.149Z,36.62
2018-07-24T10:39:07.161Z,36.72
2018-07-24T10:40:07.173Z,36.62
2018-07-24T10:41:07.182Z,36.43
2018-07-24T10:42:07.193Z,36.52
2018-07-24T10:43:07.252Z,36.33
2018-07-24T10:44:07.221Z,36.33
2018-07-24T10:45:07.226Z,36.33
2018-07-24T10:46:07.239Z,36.72
2018-07-24T10:47:07.251Z,36.43
2018-07-24T10:48:07.266Z,36.43
2018-07-24T10:49:07.280Z,36.33
2018-07-24T10:50:07.282Z,36.43
2018-07-24T10:51:07.301Z,36.33
2018-07-24T10:52:07.315Z,36.33
2018-07-24T10:53:07.325Z,36.43
2018-07-24T10:54:07.329Z,36.04
2018-07-24T10:55:07.340Z,36.43
2018-07-24T10:56:07.357Z,36.33
2018-07-24T10:57:07.366Z,36.04
2018-07-24T10:58:07.380Z,36.13
2018-07-24T10:59:07.390Z,36.04
2018-07-24T11:00:07.399Z,36.15
2018-07-24T11:01:07.409Z,36.23
2018-07-24T11:02:07.420Z,36.33
2018-07-24T11:03:07.436Z,36.23
2018-07-24T11:04:07.444Z,36.52
2018-07-24T11:05:07.520Z,36.72
2018-07-24T11:06:07.469Z,36.43
2018-07-24T11:07:07.478Z,36.33
2018-07-24T11:08:07.486Z,36.52
2018-07-24T11:09:07.498Z,36.52
2018-07-24T11:10:07.512Z,36.62
2018-07-24T11:11:07.527Z,36.62
2018-07-24T11:12:07.539Z,36.62
2018-07-24T11:13:07.548Z,36.72
2018-07-24T11:14:07.554Z,36.72
2018-07-24T11:15:07.570Z,36.43
2018-07-24T11:16:07.585Z,36.43
2018-07-24T11:17:07.590Z,36.52
2018-07-24T11:18:07.606Z,36.33
2018-07-24T11:19:07.614Z,36.91
2018-07-24T11:20:07.625Z,36.82
2018-07-24T11:21:07.639Z,37.01
2018-07-24T11:25:58.780Z,36.82
2018-07-24T11:26:58.785Z,36.91
2018-07-24T11:28:51.702Z,36.91
2018-07-24T11:29:51.704Z,36.82
2018-07-24T11:31:44.610Z,36.72
2018-07-24T11:32:44.618Z,36.82
2018-07-24T11:34:37.534Z,37.01
2018-07-24T11:35:37.615Z,37.21
2018-07-24T11:37:30.442Z,37.21
2018-07-24T11:38:30.503Z,37.11
2018-07-24T11:40:23.366Z,37.11
2018-07-24T11:41:23.369Z,37.11
2018-07-24T11:43:16.278Z,37.01
2018-07-24T11:44:16.282Z,37.11
2018-07-24T11:46:09.197Z,37.11
2018-07-24T11:47:09.199Z,37.01
2018-07-24T11:49:02.107Z,37.11
2018-07-24T11:50:02.113Z,37.11
2018-07-24T11:51:55.111Z,37.30
2018-07-24T11:52:55.032Z,37.21
2018-07-24T11:54:47.940Z,37.40
2018-07-24T11:55:47.946Z,37.40
2018-07-24T11:57:40.895Z,37.40
2018-07-24T11:58:40.880Z,37.30
2018-07-24T12:00:33.771Z,37.40
2018-07-24T12:01:33.784Z,37.30
2018-07-24T12:03:26.767Z,37.40
2018-07-24T12:04:26.696Z,37.30
2018-07-24T12:06:19.607Z,37.30
2018-07-24T12:07:19.612Z,37.11
2018-07-24T12:09:12.528Z,37.01
2018-07-24T12:10:12.526Z,37.11
2018-07-24T12:12:05.442Z,37.09
2018-07-24T12:13:05.442Z,37.38
2018-07-24T12:14:58.386Z,37.19
2018-07-24T12:15:58.356Z,37.67
2018-07-24T12:17:51.271Z,37.57
2018-07-24T12:18:51.272Z,37.48
2018-07-24T12:20:44.191Z,37.48
2018-07-24T12:21:44.190Z,37.57
2018-07-24T12:23:37.107Z,37.48
2018-07-24T12:24:37.105Z,37.57
2018-07-24T12:26:30.017Z,37.77
2018-07-24T12:27:30.019Z,37.67
2018-07-24T12:29:22.937Z,37.77
2018-07-24T12:30:22.933Z,37.57
2018-07-24T12:32:15.837Z,37.57
2018-07-24T12:33:15.847Z,37.57
2018-07-24T12:35:08.767Z,37.77
2018-07-24T12:36:08.888Z,37.67
2018-07-24T12:38:01.682Z,37.77
2018-07-24T12:39:01.677Z,37.96
2018-07-24T12:40:54.594Z,37.87
2018-07-24T12:41:54.603Z,37.77
2018-07-24T12:43:47.514Z,37.87
2018-07-24T12:44:47.515Z,38.26
2018-07-24T12:46:40.424Z,37.77
2018-07-24T12:47:40.427Z,37.96
2018-07-24T12:49:33.345Z,37.96
2018-07-24T12:50:33.344Z,38.06
2018-07-24T12:52:26.312Z,38.26
2018-07-24T12:53:26.262Z,37.96
2018-07-24T12:55:19.177Z,38.04
2018-07-24T12:56:19.176Z,38.06
2018-07-24T12:58:12.090Z,38.26
2018-07-24T12:59:12.088Z,38.26
2018-07-24T13:01:05.003Z,38.34
2018-07-24T13:02:05.007Z,38.92
2018-07-24T13:03:57.984Z,38.92
2018-07-24T13:04:57.920Z,38.92
2018-07-24T13:06:50.833Z,38.63
2018-07-24T13:07:50.832Z,38.82
2018-07-24T13:09:43.748Z,38.82
2018-07-24T13:10:43.755Z,38.63
2018-07-24T13:12:36.657Z,38.73
2018-07-24T13:13:36.665Z,38.73
2018-07-24T13:15:29.578Z,38.63
2018-07-24T13:16:29.620Z,38.73
2018-07-24T13:18:22.488Z,38.53
2018-07-24T13:19:22.495Z,38.73
2018-07-24T13:21:15.417Z,38.63
2018-07-24T13:22:15.411Z,38.53
2018-07-24T13:24:08.314Z,38.53
2018-07-24T13:25:08.326Z,38.43
2018-07-24T13:27:01.233Z,38.63
2018-07-24T13:28:01.240Z,38.43
2018-07-24T13:29:54.151Z,38.53
2018-07-24T13:30:54.151Z,38.82
2018-07-24T13:32:47.059Z,38.82
2018-07-24T13:33:47.068Z,38.82
2018-07-24T13:35:39.979Z,38.82